createdAt,value
2018-08-22T00:00:23.438Z,96805.17
2018-08-22T00:02:52.578Z,96813.25
2018-08-22T00:05:21.710Z,96813.23
2018-08-22T00:07:50.986Z,96812.16
2018-08-22T00:10:20.106Z,96809.00
2018-08-22T00:12:49.247Z,96809.01
2018-08-22T00:15:18.485Z,96806.64
2018-08-22T00:17:47.506Z,96804.79
2018-08-22T00:20:16.735Z,96798.08
2018-08-22T00:22:45.966Z,96805.60
2018-08-22T00:25:15.163Z,96803.45
2018-08-22T00:27:44.256Z,96801.86
2018-08-22T00:30:13.377Z,96797.05
2018-08-22T00:32:42.522Z,96797.86
2018-08-22T00:35:11.653Z,96795.47
2018-08-22T00:37:40.814Z,96799.80
2018-08-22T00:40:09.937Z,96794.45
2018-08-22T00:42:39.083Z,96807.02
2018-08-22T00:45:08.341Z,96797.93
2018-08-22T00:47:37.471Z,96797.91
2018-08-22T00:50:06.615Z,96806.52
2018-08-22T00:52:35.750Z,96806.78
2018-08-22T00:55:04.888Z,96800.13
2018-08-22T00:57:34.018Z,96803.05
2018-08-22T01:00:03.154Z,96796.62
2018-08-22T01:02:32.282Z,96793.42
2018-08-22T01:05:01.428Z,96786.46
2018-08-22T01:07:30.553Z,96785.66
2018-08-22T01:10:00.303Z,96781.65
2018-08-22T01:12:31.498Z,96787.00
2018-08-22T01:15:00.810Z,96790.50
2018-08-22T01:17:30.814Z,96779.78
2018-08-22T01:20:00.991Z,96782.98
2018-08-22T01:22:30.286Z,96778.70
2018-08-22T01:24:59.426Z,96781.12
2018-08-22T01:27:28.566Z,96775.20
2018-08-22T01:29:57.713Z,96775.22
2018-08-22T01:32:26.841Z,96777.91
2018-08-22T01:34:55.985Z,96781.12
2018-08-22T01:37:25.110Z,96779.23
2018-08-22T01:39:54.258Z,96782.45
2018-08-22T01:42:23.389Z,96777.92
2018-08-22T01:44:52.529Z,96777.11
2018-08-22T01:47:21.666Z,96777.38
2018-08-22T01:49:50.802Z,96774.95
2018-08-22T01:52:19.937Z,96775.23
2018-08-22T01:54:49.125Z,96772.57
2018-08-22T01:57:18.249Z,96768.83
2018-08-22T01:59:47.397Z,96770.95
2018-08-22T02:02:16.521Z,96775.80
2018-08-22T02:04:45.658Z,96773.09
2018-08-22T02:07:14.805Z,96778.72
2018-08-22T02:09:43.942Z,96769.09
2018-08-22T02:12:13.074Z,96777.67
2018-08-22T02:14:42.216Z,96770.17
2018-08-22T02:17:11.350Z,96767.22
2018-08-22T02:19:40.478Z,96776.84
2018-08-22T02:22:09.602Z,96769.63
2018-08-22T02:24:38.737Z,96765.38
2018-08-22T02:27:07.872Z,96769.63
2018-08-22T02:29:37.005Z,96762.14
2018-08-22T02:32:06.807Z,96760.80
2018-08-22T02:34:35.951Z,96762.41
2018-08-22T02:37:05.190Z,96762.97
2018-08-22T02:39:34.329Z,96760.78
2018-08-22T02:42:04.907Z,96756.77
2018-08-22T02:44:34.078Z,96760.50
2018-08-22T02:47:03.998Z,96755.67
2018-08-22T02:49:34.039Z,96757.30
2018-08-22T02:52:05.025Z,96754.08
2018-08-22T02:54:34.264Z,96753.30
2018-08-22T02:57:04.369Z,96752.22
2018-08-22T02:59:33.513Z,96757.30
2018-08-22T03:02:02.647Z,96755.94
2018-08-22T03:04:31.781Z,96754.08
2018-08-22T03:07:00.902Z,96757.56
2018-08-22T03:09:30.051Z,96752.22
2018-08-22T03:11:59.173Z,96758.09
2018-08-22T03:14:28.321Z,96755.41
2018-08-22T03:16:57.463Z,96761.58
2018-08-22T03:19:26.612Z,96757.56
2018-08-22T03:21:55.768Z,96751.67
2018-08-22T03:24:24.905Z,96752.48
2018-08-22T03:26:54.118Z,96757.80
2018-08-22T03:29:23.257Z,96762.06
2018-08-22T03:31:52.408Z,96760.99
2018-08-22T03:34:21.542Z,96758.58
2018-08-22T03:36:50.702Z,96755.38
2018-08-22T03:39:22.843Z,96755.91
2018-08-22T03:41:52.051Z,96756.98
2018-08-22T03:44:21.194Z,96753.75
2018-08-22T03:46:50.336Z,96752.97
2018-08-22T03:49:19.475Z,96754.83
2018-08-22T03:51:48.609Z,96753.23
2018-08-22T03:54:17.742Z,96754.56
2018-08-22T03:56:46.894Z,96754.78
2018-08-22T03:59:16.031Z,96753.19
2018-08-22T04:01:45.169Z,96759.34
2018-08-22T04:04:14.300Z,96751.08
2018-08-22T04:06:43.434Z,96755.34
2018-08-22T04:09:12.565Z,96754.78
2018-08-22T04:11:41.746Z,96758.01
2018-08-22T04:14:10.874Z,96754.77
2018-08-22T04:16:40.027Z,96759.59
2018-08-22T04:19:09.155Z,96758.78
2018-08-22T04:21:38.990Z,96759.30
2018-08-22T04:24:08.126Z,96756.37
2018-08-22T04:26:37.881Z,96768.39
2018-08-22T04:29:07.974Z,96761.96
2018-08-22T04:31:38.000Z,96765.19
2018-08-22T04:34:08.219Z,96767.57
2018-08-22T04:36:38.351Z,96772.13
2018-08-22T04:39:09.643Z,96769.70
2018-08-22T04:41:38.802Z,96773.16
2018-08-22T04:44:08.870Z,96779.05
2018-08-22T04:46:38.979Z,96773.17
2018-08-22T04:49:09.030Z,96776.60
2018-08-22T04:51:39.183Z,96780.31
2018-08-22T04:54:09.269Z,96779.78
2018-08-22T04:56:40.473Z,96775.79
2018-08-22T04:59:10.983Z,96775.05
2018-08-22T05:01:40.127Z,96777.39
2018-08-22T05:04:09.659Z,96777.17
2018-08-22T05:06:39.769Z,96773.94
2018-08-22T05:09:10.350Z,96778.50
2018-08-22T05:11:39.891Z,96782.80
2018-08-22T05:14:10.047Z,96775.58
2018-08-22T05:16:41.171Z,96771.87
2018-08-22T05:19:11.386Z,96769.97
2018-08-22T05:21:40.532Z,96778.51
2018-08-22T05:24:10.405Z,96779.58
2018-08-22T05:26:39.567Z,96775.53
2018-08-22T05:29:08.739Z,96779.31
2018-08-22T05:31:37.873Z,96777.99
2018-08-22T05:34:07.127Z,96770.03
2018-08-22T05:36:36.271Z,96773.78
2018-08-22T05:39:10.454Z,96773.22
2018-08-22T05:47:49.455Z,96784.67
2018-08-22T05:50:18.591Z,96780.20
2018-08-22T05:52:47.738Z,96779.17
2018-08-22T05:55:16.885Z,96778.63
2018-08-22T05:57:46.046Z,96782.41
2018-08-22T06:00:15.177Z,96787.23
2018-08-22T06:02:44.317Z,96792.84
2018-08-22T06:05:13.451Z,96784.30
2018-08-22T06:07:42.880Z,96787.52
2018-08-22T06:10:12.350Z,96792.90
2018-08-22T06:12:42.488Z,96790.51
2018-08-22T06:15:12.608Z,96789.98
2018-08-22T06:17:42.632Z,96792.64
2018-08-22T06:20:12.906Z,96795.34
2018-08-22T06:22:42.055Z,96791.30
2018-08-22T06:25:11.183Z,96791.84
2018-08-22T06:27:40.462Z,96790.77
2018-08-22T06:30:10.905Z,96790.50
2018-08-22T06:32:40.095Z,96792.63
2018-08-22T06:35:09.240Z,96791.81
2018-08-22T06:37:38.373Z,96793.16
2018-08-22T06:40:07.509Z,96797.97
2018-08-22T06:42:36.649Z,96783.19
2018-08-22T06:45:07.371Z,96793.34
2018-08-22T06:47:36.554Z,96791.71
2018-08-22T06:50:05.968Z,96795.72
2018-08-22T06:52:35.115Z,96798.09
2018-08-22T06:55:04.261Z,96794.82
2018-08-22T06:57:33.419Z,96799.37
2018-08-22T07:00:02.571Z,96802.81
2018-08-22T07:02:31.727Z,96795.53
2018-08-22T07:05:00.919Z,96791.73
2018-08-22T07:07:30.061Z,96795.98
2018-08-22T07:09:59.190Z,96788.41
2018-08-22T07:12:28.329Z,96788.66
2018-08-22T07:14:57.471Z,96787.52
2018-08-22T07:17:26.620Z,96784.83
2018-08-22T07:19:55.763Z,96776.90
2018-08-22T07:22:24.908Z,96780.34
2018-08-22T07:24:54.049Z,96777.25
2018-08-22T07:27:23.356Z,96784.87
2018-08-22T07:29:52.532Z,96783.69
2018-08-22T07:32:23.054Z,96783.53
2018-08-22T07:34:52.190Z,96774.84
2018-08-22T07:37:22.207Z,96774.15
2018-08-22T07:39:52.302Z,96776.55
2018-08-22T07:42:22.677Z,96782.47
2018-08-22T07:44:52.751Z,96776.03
2018-08-22T07:47:22.787Z,96783.90
2018-08-22T07:49:52.788Z,96782.27
2018-08-22T07:52:22.793Z,96781.94
2018-08-22T07:54:52.922Z,96784.13
2018-08-22T07:57:24.216Z,96782.13
2018-08-22T07:59:53.830Z,96788.09
2018-08-22T08:02:23.067Z,96782.17
2018-08-22T08:04:53.090Z,96780.24
2018-08-22T08:07:23.100Z,96789.27
2018-08-22T08:09:52.233Z,96784.33
2018-08-22T08:12:25.663Z,96791.50
2018-08-22T08:15:00.141Z,96785.54
2018-08-22T08:17:29.275Z,96777.69
2018-08-22T08:19:58.411Z,96777.80
2018-08-22T08:22:27.556Z,96781.44
2018-08-22T08:24:56.705Z,96776.87
2018-08-22T08:27:25.854Z,96781.50
2018-08-22T08:29:54.999Z,96780.39
2018-08-22T08:32:24.135Z,96775.84
2018-08-22T08:34:53.287Z,96778.78
2018-08-22T08:37:22.441Z,96777.45
2018-08-22T08:39:51.559Z,96780.23
2018-08-22T08:42:20.719Z,96776.97
2018-08-22T08:44:50.256Z,96773.20
2018-08-22T08:47:20.063Z,96767.33
2018-08-22T08:49:49.198Z,96770.13
2018-08-22T08:52:18.409Z,96770.14
2018-08-22T08:54:47.546Z,96769.75
2018-08-22T08:57:17.505Z,96768.10
2018-08-22T08:59:47.355Z,96766.75
2018-08-22T09:02:18.407Z,96770.09
2018-08-22T09:04:47.563Z,96764.05
2018-08-22T09:07:18.802Z,96768.77
2018-08-22T09:09:48.062Z,96761.19
2018-08-22T09:12:18.022Z,96757.55
2018-08-22T09:14:47.147Z,96761.11
2018-08-22T09:17:16.456Z,96760.98
2018-08-22T09:19:45.574Z,96760.67
2018-08-22T09:22:14.723Z,96756.45
2018-08-22T09:24:43.868Z,96758.12
2018-08-22T09:27:12.990Z,96757.78
2018-08-22T09:29:42.155Z,96763.28
2018-08-22T09:32:11.267Z,96758.28
2018-08-22T09:34:40.415Z,96758.02
2018-08-22T09:37:09.545Z,96748.72
2018-08-22T09:39:38.697Z,96750.30
2018-08-22T09:42:07.822Z,96743.73
2018-08-22T09:44:36.964Z,96748.92
2018-08-22T09:47:06.094Z,96746.93
2018-08-22T09:49:35.244Z,96736.93
2018-08-22T09:52:04.383Z,96734.27
2018-08-22T09:54:44.433Z,96734.51
2018-08-22T09:57:13.492Z,96732.11
2018-08-22T09:59:42.632Z,96723.27
2018-08-22T10:02:11.779Z,96726.95
2018-08-22T10:04:40.926Z,96725.42
2018-08-22T10:07:10.184Z,96727.39
2018-08-22T10:09:39.301Z,96723.08
2018-08-22T10:12:08.426Z,96727.08
2018-08-22T10:14:37.575Z,96715.05
2018-08-22T10:17:06.801Z,96709.27
2018-08-22T10:19:36.028Z,96711.83
2018-08-22T10:22:05.124Z,96706.91
2018-08-22T10:24:35.644Z,96709.48
2018-08-22T10:27:04.849Z,96706.09
2018-08-22T10:29:34.516Z,96699.97
2018-08-22T10:32:03.650Z,96700.55
2018-08-22T10:34:34.625Z,96698.83
2018-08-22T10:37:03.757Z,96688.84
2018-08-22T10:44:37.853Z,96692.61
2018-08-22T10:47:06.981Z,96691.59
2018-08-22T10:49:36.114Z,96680.73
2018-08-22T10:52:05.245Z,96677.73
2018-08-22T10:54:34.384Z,96678.51
2018-08-22T10:57:04.146Z,96680.23
2018-08-22T10:59:34.127Z,96678.22
2018-08-22T11:02:04.177Z,96676.58
2018-08-22T11:04:33.269Z,96679.14
2018-08-22T11:07:02.408Z,96679.13
2018-08-22T11:09:31.543Z,96670.38
2018-08-22T11:12:00.693Z,96682.23
2018-08-22T11:14:29.939Z,96676.24
2018-08-22T11:16:59.089Z,96669.85
2018-08-22T11:19:28.210Z,96675.73
2018-08-22T11:22:14.496Z,96675.11
2018-08-22T11:25:00.776Z,96668.92
2018-08-22T11:27:46.734Z,96662.14
2018-08-22T11:30:33.022Z,96659.14
2018-08-22T11:33:19.388Z,96664.95
2018-08-22T11:35:47.063Z,96662.86
2018-08-22T11:38:16.201Z,96663.19
2018-08-22T11:40:45.359Z,96658.31
2018-08-22T11:43:14.486Z,96662.80
2018-08-22T11:45:43.615Z,96659.38
2018-08-22T11:48:12.759Z,96654.63
2018-08-22T11:50:41.890Z,96655.77
2018-08-22T11:53:11.039Z,96661.80
2018-08-22T11:55:40.179Z,96662.69
2018-08-22T11:58:09.323Z,96662.69
2018-08-22T12:00:38.458Z,96658.58
2018-08-22T12:03:07.599Z,96651.41
2018-08-22T12:05:36.730Z,96657.56
2018-08-22T12:08:05.881Z,96659.59
2018-08-22T12:10:35.030Z,96659.26
2018-08-22T12:13:05.094Z,96658.19
2018-08-22T12:15:35.207Z,96650.75
2018-08-22T12:18:04.342Z,96647.66
2018-08-22T12:20:33.482Z,96645.47
2018-08-22T12:23:02.725Z,96643.53
2018-08-22T12:25:31.860Z,96641.93
2018-08-22T12:28:01.010Z,96631.34
2018-08-22T12:30:30.143Z,96636.90
2018-08-22T12:32:59.295Z,96632.55
2018-08-22T12:35:28.443Z,96635.70
2018-08-22T12:37:57.587Z,96629.84
2018-08-22T12:40:26.741Z,96629.30
2018-08-22T12:42:55.871Z,96628.41
2018-08-22T12:45:25.047Z,96620.91
2018-08-22T12:47:54.384Z,96621.35
2018-08-22T12:50:23.691Z,96621.95
2018-08-22T12:52:52.743Z,96621.33
2018-08-22T12:55:21.882Z,96619.97
2018-08-22T12:57:51.037Z,96619.09
2018-08-22T13:00:20.163Z,96614.35
2018-08-22T13:02:49.311Z,96608.92
2018-08-22T13:05:18.526Z,96615.20
2018-08-22T13:07:48.530Z,96611.23
2018-08-22T13:10:18.475Z,96610.42
2018-08-22T13:12:48.566Z,96606.34
2018-08-22T13:15:18.583Z,96604.99
2018-08-22T13:17:48.592Z,96602.16
2018-08-22T13:20:18.705Z,96603.67
2018-08-22T13:22:48.719Z,96599.16
2018-08-22T13:25:18.868Z,96602.64
2018-08-22T13:27:48.854Z,96604.07
2018-08-22T13:30:18.958Z,96603.14
2018-08-22T13:32:48.963Z,96599.02
2018-08-22T13:35:19.967Z,96595.28
2018-08-22T13:37:49.121Z,96594.79
2018-08-22T13:40:19.048Z,96595.05
2018-08-22T13:42:49.069Z,96595.56
2018-08-22T13:45:19.079Z,96593.94
2018-08-22T13:47:50.207Z,96592.75
2018-08-22T13:50:19.333Z,96588.09
2018-08-22T13:52:49.240Z,96588.02
2018-08-22T13:55:19.346Z,96589.02
2018-08-22T13:57:49.383Z,96582.66
2018-08-22T14:00:19.382Z,96582.65
2018-08-22T14:02:49.406Z,96577.73
2018-08-22T14:05:19.455Z,96578.31
2018-08-22T14:07:49.547Z,96575.49
2018-08-22T14:10:19.580Z,96570.36
2018-08-22T14:12:49.583Z,96571.02
2018-08-22T14:15:19.633Z,96570.63
2018-08-22T14:17:49.718Z,96555.14
2018-08-22T14:20:18.867Z,96560.13
2018-08-22T14:22:48.017Z,96560.28
2018-08-22T14:25:17.138Z,96551.33
2018-08-22T14:27:46.275Z,96553.78
2018-08-22T14:30:15.546Z,96545.89
2018-08-22T14:32:44.680Z,96551.80
2018-08-22T14:35:13.823Z,96543.62
2018-08-22T14:37:42.963Z,96549.49
2018-08-22T14:40:12.106Z,96553.89
2018-08-22T14:42:41.234Z,96561.45
2018-08-22T14:45:10.458Z,96560.27
2018-08-22T14:47:39.663Z,96561.36
2018-08-22T14:50:08.887Z,96562.78
2018-08-22T14:52:38.334Z,96561.86
2018-08-22T14:55:07.577Z,96555.61
2018-08-22T14:57:36.710Z,96543.50
2018-08-22T15:00:06.342Z,96545.41
2018-08-22T15:02:35.673Z,96545.37
2018-08-22T15:05:04.781Z,96554.52
2018-08-22T15:07:33.940Z,96549.63
2018-08-22T15:10:03.094Z,96547.77
2018-08-22T15:12:32.242Z,96542.14
2018-08-22T15:15:01.374Z,96537.16
2018-08-22T15:17:30.511Z,96540.30
2018-08-22T15:19:59.647Z,96545.78
2018-08-22T15:22:28.792Z,96547.41
2018-08-22T15:24:57.918Z,96551.23
2018-08-22T15:27:27.066Z,96554.95
2018-08-22T15:29:56.200Z,96563.19
2018-08-22T15:32:25.817Z,96562.05
2018-08-22T15:34:56.139Z,96547.81
2018-08-22T15:37:25.859Z,96553.69
2018-08-22T15:39:54.995Z,96556.79
2018-08-22T15:42:24.135Z,96561.28
2018-08-22T15:44:53.275Z,96555.93
2018-08-22T15:47:22.486Z,96551.73
2018-08-22T15:49:51.546Z,96553.81
2018-08-22T15:52:20.700Z,96551.59
2018-08-22T15:55:10.899Z,96551.91
2018-08-22T15:57:57.634Z,96552.41
2018-08-22T16:00:44.234Z,96550.02
2018-08-22T16:03:13.373Z,96545.23
2018-08-22T16:05:43.445Z,96546.91
2018-08-22T16:08:13.069Z,96543.25
2018-08-22T16:10:42.200Z,96549.79
2018-08-22T16:13:17.677Z,96562.20
2018-08-22T16:15:48.643Z,96559.17
2018-08-22T16:18:18.865Z,96565.71
2018-08-22T16:20:56.247Z,96564.04
2018-08-22T16:23:28.551Z,96568.67
2018-08-22T16:25:58.944Z,96566.20
2018-08-22T16:28:34.348Z,96562.95
2018-08-22T16:31:03.481Z,96551.86
2018-08-22T16:33:32.632Z,96555.29
2018-08-22T16:36:01.754Z,96557.91
2018-08-22T16:38:30.903Z,96554.51
2018-08-22T16:41:00.108Z,96564.52
2018-08-22T16:43:41.153Z,96552.66
2018-08-22T16:46:12.342Z,96546.93
2018-08-22T16:48:42.626Z,96554.78
2018-08-22T16:51:11.820Z,96551.84
2018-08-22T16:53:40.949Z,96550.98
2018-08-22T16:56:10.088Z,96545.31
2018-08-22T16:58:39.230Z,96545.89
2018-08-22T17:01:08.358Z,96543.19
2018-08-22T17:03:37.506Z,96539.85
2018-08-22T17:06:11.922Z,96540.42
2018-08-22T17:08:41.149Z,96541.12
2018-08-22T17:11:11.437Z,96533.34
2018-08-22T17:13:45.626Z,96534.94
2018-08-22T17:16:14.858Z,96537.41
2018-08-22T17:18:44.014Z,96535.84
2018-08-22T17:21:13.179Z,96538.32
2018-08-22T17:23:42.655Z,96541.52
2018-08-22T17:26:19.376Z,96534.75
2018-08-22T17:28:53.857Z,96529.17
2018-08-22T17:31:24.073Z,96531.41
2018-08-22T17:33:55.226Z,96533.39
2018-08-22T17:36:24.523Z,96531.23
2018-08-22T17:38:55.375Z,96533.71
2018-08-22T17:41:26.338Z,96539.75
2018-08-22T17:44:12.394Z,96540.06
2018-08-22T17:46:48.651Z,96538.33
2018-08-22T17:49:17.958Z,96539.19
2018-08-22T17:51:58.629Z,96541.66
2018-08-22T17:54:28.027Z,96533.72
2018-08-22T17:57:15.453Z,96539.98
2018-08-22T17:59:45.058Z,96538.56
2018-08-22T18:02:15.320Z,96537.03
2018-08-22T18:05:02.203Z,96533.68
2018-08-22T18:07:31.397Z,96532.80
2018-08-22T18:10:02.030Z,96538.83
2018-08-22T18:12:31.175Z,96535.17
2018-08-22T18:15:02.257Z,96540.39
2018-08-22T18:17:31.478Z,96538.62
2018-08-22T18:20:00.967Z,96543.38
2018-08-22T18:22:33.631Z,96544.88
2018-08-22T18:25:02.782Z,96550.36
2018-08-22T18:27:32.020Z,96553.83
2018-08-22T18:30:01.063Z,96551.09
2018-08-22T18:32:30.210Z,96550.27
2018-08-22T18:35:06.023Z,96557.33
2018-08-22T18:37:35.119Z,96554.58
2018-08-22T18:40:21.788Z,96557.12
2018-08-22T18:42:54.755Z,96557.61
2018-08-22T18:45:24.594Z,96569.02
2018-08-22T18:47:53.768Z,96561.98
2018-08-22T18:50:22.914Z,96565.94
2018-08-22T18:52:55.082Z,96563.98
2018-08-22T18:55:26.538Z,96563.84
2018-08-22T18:57:56.435Z,96566.45
2018-08-22T19:00:25.677Z,96577.55
2018-08-22T19:02:58.705Z,96585.06
2018-08-22T19:05:30.649Z,96590.68
2018-08-22T19:08:09.901Z,96590.91
2018-08-22T19:10:40.221Z,96581.80
2018-08-22T19:13:14.516Z,96589.92
2018-08-22T19:15:47.038Z,96588.81
2018-08-22T19:18:16.223Z,96583.58
2018-08-22T19:20:45.403Z,96589.45
2018-08-22T19:23:14.571Z,96588.10
2018-08-22T19:25:46.706Z,96590.17
2018-08-22T19:28:15.873Z,96593.84
2018-08-22T19:30:45.009Z,96591.09
2018-08-22T19:33:15.591Z,96592.49
2018-08-22T19:35:45.357Z,96589.11
2018-08-22T19:38:18.550Z,96594.31
2018-08-22T19:40:47.717Z,96592.72
2018-08-22T19:43:16.877Z,96595.26
2018-08-22T19:45:46.057Z,96584.00
2018-08-22T19:48:15.240Z,96590.81
2018-08-22T19:50:44.395Z,96585.59
2018-08-22T19:53:14.246Z,96590.47
2018-08-22T19:55:44.371Z,96589.13
2018-08-22T19:58:19.978Z,96593.48
2018-08-22T20:00:49.450Z,96593.33
2018-08-22T20:03:22.667Z,96593.56
2018-08-22T20:05:53.143Z,96588.69
2018-08-22T20:08:27.645Z,96591.19
2018-08-22T20:10:57.749Z,96596.67
2018-08-22T20:13:41.436Z,96589.99
2018-08-22T20:16:10.587Z,96590.14
2018-08-22T20:18:39.719Z,96594.77
2018-08-22T20:21:15.856Z,96592.32
2018-08-22T20:23:45.540Z,96604.53
2018-08-22T20:26:14.751Z,96604.23
2018-08-22T20:28:47.971Z,96607.22
2018-08-22T20:31:17.101Z,96605.80
2018-08-22T20:34:06.460Z,96608.30
2018-08-22T20:36:35.657Z,96600.85
2018-08-22T20:39:10.027Z,96599.80
2018-08-22T20:41:39.722Z,96595.53
2018-08-22T20:44:18.140Z,96592.89
2018-08-22T20:46:48.479Z,96597.54
2018-08-22T20:49:20.055Z,96595.09
2018-08-22T20:51:49.417Z,96594.04
2018-08-22T20:54:23.633Z,96593.23
2018-08-22T20:56:58.161Z,96588.14
2018-08-22T20:59:27.359Z,96591.17
2018-08-22T21:02:01.793Z,96591.98
2018-08-22T21:04:30.918Z,96599.38
2018-08-22T21:07:01.073Z,96594.83
2018-08-22T21:09:30.210Z,96596.78
2018-08-22T21:12:00.000Z,96596.31
2018-08-22T21:14:30.441Z,96589.48
2018-08-22T21:16:59.611Z,96594.86
2018-08-22T21:19:28.759Z,96594.86
2018-08-22T21:21:57.889Z,96594.09
2018-08-22T21:24:27.065Z,96594.41
2018-08-22T21:26:56.371Z,96602.91
2018-08-22T21:29:26.481Z,96595.03
2018-08-22T21:31:55.618Z,96593.45
2018-08-22T21:34:24.749Z,96594.59
2018-08-22T21:36:53.904Z,96595.41
2018-08-22T21:39:24.450Z,96591.71
2018-08-22T21:41:53.797Z,96591.83
2018-08-22T21:44:23.665Z,96591.59
2018-08-22T21:47:00.967Z,96587.88
2018-08-22T21:49:30.389Z,96590.77
2018-08-22T21:52:01.111Z,96590.86
2018-08-22T21:54:30.313Z,96588.45
2018-08-22T21:56:59.483Z,96590.66
2018-08-22T21:59:28.635Z,96583.73
2018-08-22T22:02:03.027Z,96587.20
2018-08-22T22:04:34.359Z,96585.91
2018-08-22T22:07:04.695Z,96585.61
2018-08-22T22:09:34.394Z,96583.25
2018-08-22T22:12:04.109Z,96581.98
2018-08-22T22:14:34.418Z,96579.58
2018-08-22T22:17:04.341Z,96579.06
2018-08-22T22:19:36.413Z,96579.70
2018-08-22T22:22:05.619Z,96583.80
2018-08-22T22:24:43.739Z,96580.30
2018-08-22T22:27:13.327Z,96575.05
2018-08-22T22:29:42.460Z,96581.36
2018-08-22T22:32:13.827Z,96582.28
2018-08-22T22:34:42.964Z,96578.90
2018-08-22T22:37:12.106Z,96587.20
2018-08-22T22:39:43.942Z,96577.55
2018-08-22T22:42:18.681Z,96582.08
2018-08-22T22:44:49.754Z,96578.33
2018-08-22T22:47:24.302Z,96581.93
2018-08-22T22:49:53.454Z,96581.69
2018-08-22T22:52:43.808Z,96578.22
2018-08-22T22:55:13.314Z,96580.34
2018-08-22T22:57:43.729Z,96573.38
2018-08-22T23:00:14.275Z,96579.59
2018-08-22T23:02:44.523Z,96582.62
2018-08-22T23:05:13.681Z,96574.30
2018-08-22T23:07:43.495Z,96576.73
2018-08-22T23:10:13.628Z,96582.59
2018-08-22T23:12:45.978Z,96579.16
2018-08-22T23:15:18.539Z,96581.81
2018-08-22T23:17:52.219Z,96580.76
2018-08-22T23:20:41.999Z,96579.41
2018-08-22T23:23:30.410Z,96570.62
2018-08-22T23:26:13.106Z,96567.47
2018-08-22T23:28:43.339Z,96570.93
2018-08-22T23:33:43.779Z,96574.11
2018-08-22T23:36:12.981Z,96570.65
2018-08-22T23:38:42.161Z,96569.47
2018-08-22T23:41:11.471Z,96566.25
2018-08-22T23:43:55.927Z,96567.09
2018-08-22T23:46:25.073Z,96568.43
2018-08-22T23:48:57.825Z,96567.65
2018-08-22T23:51:26.967Z,96561.20
2018-08-22T23:53:59.276Z,96566.65
2018-08-22T23:56:29.512Z,96565.89
2018-08-22T23:58:59.026Z,96563.27
